createdAt,value
2023-01-13T00:01:25.650Z,12.10
2023-01-13T00:03:52.445Z,12.15
2023-01-13T00:06:20.062Z,12.16
2023-01-13T00:08:50.141Z,12.20
2023-01-13T00:11:17.108Z,12.18
2023-01-13T00:13:43.631Z,12.20
2023-01-13T00:16:17.521Z,12.20
2023-01-13T00:18:44.537Z,12.20
2023-01-13T00:21:15.704Z,12.22
2023-01-13T00:23:42.535Z,12.22
2023-01-13T00:26:10.811Z,12.22
2023-01-13T00:28:37.222Z,12.21
2023-01-13T00:31:07.216Z,12.22
2023-01-13T00:33:33.720Z,12.23
2023-01-13T00:36:01.011Z,12.23
2023-01-13T00:38:27.958Z,12.18
2023-01-13T00:41:01.858Z,12.19
2023-01-13T00:43:29.470Z,12.20
2023-01-13T00:45:55.962Z,12.18
2023-01-13T00:48:23.176Z,12.14
2023-01-13T00:51:00.147Z,12.05
2023-01-13T00:53:27.043Z,12.04
2023-01-13T00:56:00.833Z,12.04
2023-01-13T00:58:27.260Z,12.01
2023-01-13T01:00:53.716Z,11.94
2023-01-13T01:03:20.076Z,11.86
2023-01-13T01:05:46.361Z,11.85
2023-01-13T01:08:12.668Z,11.80
2023-01-13T01:10:38.996Z,11.73
2023-01-13T01:13:05.336Z,11.70
2023-01-13T01:15:31.640Z,11.67
2023-01-13T01:17:57.953Z,11.64
2023-01-13T01:20:24.244Z,11.68
2023-01-13T01:22:50.546Z,11.64
2023-01-13T01:25:16.825Z,11.62
2023-01-13T01:27:43.102Z,11.64
2023-01-13T01:30:09.769Z,11.65
2023-01-13T01:32:36.067Z,11.71
2023-01-13T01:35:02.383Z,11.73
2023-01-13T01:37:28.697Z,11.74
2023-01-13T01:39:55.015Z,11.72
2023-01-13T01:42:41.054Z,11.69
2023-01-13T01:45:13.601Z,11.63
2023-01-13T01:47:41.013Z,11.54
2023-01-13T01:50:07.681Z,11.43
2023-01-13T01:52:40.507Z,11.27
2023-01-13T01:55:13.473Z,11.13
2023-01-13T01:57:42.955Z,11.00
2023-01-13T02:00:09.570Z,10.91
2023-01-13T02:02:36.473Z,10.89
2023-01-13T02:05:02.850Z,10.77
2023-01-13T02:07:30.997Z,10.77
2023-01-13T02:09:59.971Z,10.81
2023-01-13T02:12:30.285Z,10.84
2023-01-13T02:14:59.300Z,10.83
2023-01-13T02:17:40.923Z,10.85
2023-01-13T02:20:26.039Z,10.85
2023-01-13T02:22:58.634Z,10.90
2023-01-13T02:25:31.177Z,10.86
2023-01-13T02:28:00.983Z,10.86
2023-01-13T02:30:50.939Z,10.81
2023-01-13T02:33:26.425Z,10.81
2023-01-13T02:36:04.274Z,10.81
2023-01-13T02:38:53.883Z,10.81
2023-01-13T02:41:53.315Z,10.82
2023-01-13T02:44:21.076Z,10.78
2023-01-13T02:46:55.474Z,10.79
2023-01-13T02:49:28.267Z,10.84
2023-01-13T02:51:58.706Z,10.86
2023-01-13T02:54:27.585Z,10.82
2023-01-13T02:56:55.217Z,10.82
2023-01-13T02:59:22.113Z,10.84
2023-01-13T03:01:49.611Z,10.81
2023-01-13T03:04:35.978Z,10.78
2023-01-13T03:07:09.048Z,10.73
2023-01-13T03:09:58.627Z,10.73
2023-01-13T03:12:24.888Z,10.74
2023-01-13T03:14:54.192Z,10.74
2023-01-13T03:17:32.745Z,10.73
2023-01-13T03:20:08.472Z,10.73
2023-01-13T03:22:34.781Z,10.73
2023-01-13T03:25:11.761Z,10.74
2023-01-13T03:28:01.521Z,10.69
2023-01-13T03:30:32.366Z,10.68
2023-01-13T03:33:04.858Z,10.45
2023-01-13T03:35:34.125Z,10.63
2023-01-13T03:38:04.207Z,10.62
2023-01-13T03:40:33.246Z,10.64
2023-01-13T03:43:21.163Z,10.63
2023-01-13T03:45:52.056Z,10.62
2023-01-13T03:48:19.546Z,10.59
2023-01-13T03:50:48.986Z,10.59
2023-01-13T03:53:19.479Z,10.59
2023-01-13T03:55:48.424Z,10.58
2023-01-13T03:58:18.755Z,10.58
2023-01-13T04:00:45.164Z,10.55
2023-01-13T04:03:13.269Z,10.57
2023-01-13T04:05:41.829Z,10.56
2023-01-13T04:08:22.022Z,10.53
2023-01-13T04:11:06.795Z,10.52
2023-01-13T04:13:36.729Z,10.49
2023-01-13T04:16:05.677Z,10.42
2023-01-13T04:18:32.199Z,10.34
2023-01-13T04:21:00.014Z,10.28
2023-01-13T04:23:27.859Z,10.22
2023-01-13T04:25:54.751Z,10.14
2023-01-13T04:28:21.121Z,10.06
2023-01-13T04:30:47.919Z,10.03
2023-01-13T04:33:15.297Z,9.78
2023-01-13T04:35:42.062Z,9.92
2023-01-13T04:38:11.186Z,9.88
2023-01-13T04:40:37.991Z,9.87
2023-01-13T04:43:04.577Z,9.86
2023-01-13T04:45:31.113Z,9.83
2023-01-13T04:47:57.487Z,9.79
2023-01-13T04:50:24.007Z,9.76
2023-01-13T04:52:51.013Z,9.72
2023-01-13T04:55:17.671Z,9.71
2023-01-13T04:57:44.316Z,9.72
2023-01-13T05:00:12.410Z,9.72
2023-01-13T05:02:39.033Z,9.78
2023-01-13T05:05:05.451Z,9.78
2023-01-13T05:07:33.730Z,9.77
2023-01-13T05:10:00.121Z,9.74
2023-01-13T05:12:45.168Z,9.82
2023-01-13T05:15:30.896Z,9.81
2023-01-13T05:17:57.312Z,9.79
2023-01-13T05:20:24.199Z,9.76
2023-01-13T05:23:09.355Z,9.68
2023-01-13T05:25:38.836Z,9.64
2023-01-13T05:28:05.834Z,9.59
2023-01-13T05:30:33.423Z,9.59
2023-01-13T05:32:59.765Z,9.62
2023-01-13T05:35:26.191Z,9.62
2023-01-13T05:37:54.154Z,9.59
2023-01-13T05:40:39.207Z,9.54
2023-01-13T05:43:21.037Z,9.51
2023-01-13T05:45:47.395Z,9.56
2023-01-13T05:48:14.482Z,9.57
2023-01-13T05:50:40.809Z,9.63
2023-01-13T05:53:07.183Z,9.66
2023-01-13T05:55:33.523Z,9.71
2023-01-13T05:58:00.156Z,9.68
2023-01-13T06:00:26.487Z,9.75
2023-01-13T06:02:52.847Z,9.79
2023-01-13T06:05:19.203Z,9.76
2023-01-13T06:07:45.564Z,9.74
2023-01-13T06:10:12.292Z,9.70
2023-01-13T06:12:38.670Z,9.64
2023-01-13T06:15:05.244Z,9.67
2023-01-13T06:17:31.656Z,9.60
2023-01-13T06:19:57.988Z,9.62
2023-01-13T06:22:28.733Z,9.69
2023-01-13T06:24:55.263Z,9.72
2023-01-13T06:27:22.385Z,9.76
2023-01-13T06:29:48.791Z,9.79
2023-01-13T06:32:19.592Z,9.82
2023-01-13T06:34:49.797Z,9.86
2023-01-13T06:37:19.794Z,9.87
2023-01-13T06:39:46.415Z,9.90
2023-01-13T06:42:31.343Z,9.94
2023-01-13T06:44:57.696Z,9.91
2023-01-13T06:47:24.215Z,9.89
2023-01-13T06:49:50.618Z,9.89
2023-01-13T06:52:17.056Z,9.87
2023-01-13T06:54:43.346Z,9.85
2023-01-13T06:57:09.678Z,9.88
2023-01-13T06:59:35.978Z,9.87
2023-01-13T07:02:02.916Z,9.88
2023-01-13T07:04:29.390Z,9.91
2023-01-13T07:06:55.833Z,9.97
2023-01-13T07:09:22.164Z,9.97
2023-01-13T07:11:48.560Z,9.93
2023-01-13T07:14:33.739Z,9.92
2023-01-13T07:17:00.253Z,9.94
2023-01-13T07:19:26.630Z,9.90
2023-01-13T07:21:53.232Z,9.86
2023-01-13T07:24:19.941Z,9.82
2023-01-13T07:26:46.307Z,9.82
2023-01-13T07:29:12.693Z,9.92
2023-01-13T07:31:39.740Z,9.96
2023-01-13T07:34:06.563Z,9.99
2023-01-13T07:36:32.922Z,9.96
2023-01-13T07:38:59.285Z,9.94
2023-01-13T07:41:44.482Z,9.95
2023-01-13T07:44:10.919Z,9.90
2023-01-13T07:46:38.054Z,9.81
2023-01-13T07:49:04.785Z,9.76
2023-01-13T07:51:31.181Z,9.71
2023-01-13T07:53:57.794Z,9.69
2023-01-13T07:56:27.280Z,9.63
2023-01-13T07:58:53.780Z,9.60
2023-01-13T08:01:20.247Z,9.54
2023-01-13T08:03:47.199Z,9.55
2023-01-13T08:06:14.137Z,9.54
2023-01-13T08:08:40.748Z,9.48
2023-01-13T08:11:08.229Z,9.44
2023-01-13T08:13:34.890Z,9.45
2023-01-13T08:16:21.612Z,9.43
2023-01-13T08:18:48.042Z,9.45
2023-01-13T08:21:14.754Z,9.50
2023-01-13T08:23:41.836Z,9.51
2023-01-13T08:26:17.024Z,9.54
2023-01-13T08:28:43.785Z,9.53
2023-01-13T08:31:11.486Z,9.50
2023-01-13T08:33:37.938Z,9.53
2023-01-13T08:36:05.829Z,9.55
2023-01-13T08:38:32.568Z,9.59
2023-01-13T08:40:58.992Z,9.54
2023-01-13T08:43:25.440Z,9.55
2023-01-13T08:45:59.177Z,9.63
2023-01-13T08:48:26.206Z,9.72
2023-01-13T08:50:53.262Z,9.78
2023-01-13T08:53:20.117Z,9.89
2023-01-13T08:55:46.812Z,9.99
2023-01-13T08:58:16.431Z,10.11
2023-01-13T09:00:43.400Z,10.13
2023-01-13T09:03:09.746Z,10.21
2023-01-13T09:05:36.096Z,10.25
2023-01-13T09:08:02.475Z,10.28
2023-01-13T09:10:28.820Z,10.34
2023-01-13T09:13:13.622Z,10.30
2023-01-13T09:15:41.230Z,10.34
2023-01-13T09:18:07.658Z,10.29
2023-01-13T09:20:34.070Z,10.32
2023-01-13T09:23:00.571Z,10.36
2023-01-13T09:25:27.096Z,10.39
2023-01-13T09:27:53.451Z,10.45
2023-01-13T09:30:19.956Z,10.49
2023-01-13T09:32:46.266Z,10.55
2023-01-13T09:35:12.900Z,10.51
2023-01-13T09:37:40.522Z,10.54
2023-01-13T09:40:15.454Z,10.46
2023-01-13T09:43:07.497Z,10.46
2023-01-13T09:45:43.779Z,10.49
2023-01-13T09:48:10.043Z,10.50
2023-01-13T09:50:39.381Z,10.53
2023-01-13T09:53:07.559Z,10.54
2023-01-13T09:55:36.740Z,10.63
2023-01-13T09:58:09.604Z,10.73
2023-01-13T10:00:38.803Z,10.71
2023-01-13T10:03:08.192Z,10.79
2023-01-13T10:05:36.560Z,10.85
2023-01-13T10:08:07.583Z,10.89
2023-01-13T10:10:41.594Z,10.89
2023-01-13T10:13:15.347Z,10.87
2023-01-13T10:15:45.383Z,10.82
2023-01-13T10:18:18.085Z,10.87
2023-01-13T10:20:50.747Z,10.84
2023-01-13T10:23:20.195Z,10.80
2023-01-13T10:26:10.764Z,10.78
2023-01-13T10:28:37.088Z,10.86
2023-01-13T10:31:10.125Z,10.95
2023-01-13T10:33:36.558Z,10.97
2023-01-13T10:36:12.636Z,11.01
2023-01-13T10:38:46.506Z,11.06
2023-01-13T10:41:16.045Z,11.04
2023-01-13T10:43:42.833Z,11.13
2023-01-13T10:46:19.001Z,11.18
2023-01-13T10:48:52.779Z,11.17
2023-01-13T10:51:27.240Z,11.18
2023-01-13T10:53:53.601Z,11.19
2023-01-13T10:56:21.032Z,11.25
2023-01-13T10:58:47.508Z,11.17
2023-01-13T11:01:19.567Z,11.30
2023-01-13T11:03:47.978Z,11.28
2023-01-13T11:06:25.604Z,11.30
2023-01-13T11:08:55.106Z,11.31
2023-01-13T11:11:37.013Z,11.26
2023-01-13T11:14:24.244Z,11.31
2023-01-13T11:16:53.707Z,11.32
2023-01-13T11:19:22.580Z,11.29
2023-01-13T11:21:55.203Z,11.32
2023-01-13T11:24:27.551Z,11.36
2023-01-13T11:26:57.839Z,11.37
2023-01-13T11:29:24.154Z,11.38
2023-01-13T11:31:52.416Z,11.42
2023-01-13T11:34:30.358Z,11.44
2023-01-13T11:36:58.283Z,11.39
2023-01-13T11:39:36.201Z,11.45
2023-01-13T11:42:20.765Z,11.37
2023-01-13T11:45:05.241Z,11.33
2023-01-13T11:47:32.288Z,11.49
2023-01-13T11:49:59.240Z,11.57
2023-01-13T11:52:54.742Z,11.56
2023-01-13T11:55:32.282Z,11.51
2023-01-13T11:58:29.049Z,11.58
2023-01-13T12:01:01.906Z,11.64
2023-01-13T12:03:48.378Z,11.49
2023-01-13T12:06:17.740Z,11.46
2023-01-13T12:09:04.983Z,11.55
2023-01-13T12:11:56.609Z,11.58
2023-01-13T12:14:49.325Z,11.59
2023-01-13T12:17:20.390Z,11.65
2023-01-13T12:19:49.087Z,11.64
2023-01-13T12:22:29.920Z,11.57
2023-01-13T12:25:15.123Z,11.58
2023-01-13T12:27:45.835Z,11.57
2023-01-13T12:30:18.262Z,11.49
2023-01-13T12:32:48.054Z,11.39
2023-01-13T12:35:29.055Z,11.30
2023-01-13T12:38:04.339Z,11.29
2023-01-13T12:40:34.174Z,11.26
2023-01-13T12:43:22.541Z,11.25
2023-01-13T12:45:48.863Z,11.35
2023-01-13T12:48:34.582Z,11.39
2023-01-13T12:51:01.567Z,11.24
2023-01-13T12:53:34.920Z,11.09
2023-01-13T12:56:27.315Z,10.99
2023-01-13T12:59:13.619Z,10.97
2023-01-13T13:01:40.192Z,10.95
2023-01-13T13:04:08.265Z,10.97
2023-01-13T13:06:36.040Z,11.02
2023-01-13T13:09:05.005Z,11.02
2023-01-13T13:11:50.113Z,10.96
2023-01-13T13:14:36.506Z,10.85
2023-01-13T13:17:04.030Z,10.85
2023-01-13T13:19:30.453Z,10.83
2023-01-13T13:22:09.253Z,10.72
2023-01-13T13:24:35.615Z,10.51
2023-01-13T13:27:16.515Z,10.33
2023-01-13T13:29:49.560Z,10.25
2023-01-13T13:32:42.256Z,10.18
2023-01-13T13:35:20.717Z,10.09
2023-01-13T13:38:24.820Z,10.12
2023-01-13T13:41:10.062Z,10.11
2023-01-13T13:43:59.885Z,10.15
2023-01-13T13:46:48.460Z,10.02
2023-01-13T13:49:22.365Z,10.06
2023-01-13T13:51:55.810Z,10.13
2023-01-13T13:54:22.553Z,10.10
2023-01-13T13:56:50.245Z,9.98
2023-01-13T13:59:19.262Z,9.97
2023-01-13T14:01:46.101Z,10.04
2023-01-13T14:04:15.243Z,10.02
2023-01-13T14:06:55.628Z,10.12
2023-01-13T14:09:22.967Z,10.11
2023-01-13T14:11:59.930Z,10.19
2023-01-13T14:14:26.333Z,10.16
2023-01-13T14:16:54.835Z,10.13
2023-01-13T14:19:31.745Z,10.06
2023-01-13T14:22:01.237Z,10.12
2023-01-13T14:24:28.607Z,10.11
2023-01-13T14:27:08.653Z,10.13
2023-01-13T14:29:35.135Z,10.06
2023-01-13T14:32:01.620Z,10.10
2023-01-13T14:34:32.279Z,10.11
2023-01-13T14:37:00.521Z,10.11
2023-01-13T14:39:34.093Z,10.14
2023-01-13T14:42:00.399Z,10.06
2023-01-13T14:44:28.494Z,10.11
2023-01-13T14:46:56.596Z,10.14
2023-01-13T14:49:39.825Z,10.14
2023-01-13T14:52:11.330Z,10.17
2023-01-13T14:54:45.516Z,10.19
2023-01-13T14:57:22.521Z,10.22
2023-01-13T14:59:55.396Z,10.24
2023-01-13T15:02:24.855Z,10.26
2023-01-13T15:04:54.164Z,10.24
2023-01-13T15:07:25.034Z,10.23
2023-01-13T15:09:53.529Z,10.26
2023-01-13T15:12:40.516Z,10.26
2023-01-13T15:15:22.722Z,10.28
2023-01-13T15:17:49.494Z,10.23
2023-01-13T15:20:16.920Z,10.25
2023-01-13T15:22:43.309Z,10.20
2023-01-13T15:25:10.168Z,10.17
2023-01-13T15:27:37.159Z,10.21
2023-01-13T15:30:12.596Z,10.24
2023-01-13T15:32:38.977Z,10.20
2023-01-13T15:35:05.581Z,10.19
2023-01-13T15:37:32.041Z,10.19
2023-01-13T15:39:58.374Z,10.13
2023-01-13T15:42:43.425Z,10.15
2023-01-13T15:45:31.559Z,10.15
2023-01-13T15:47:58.551Z,10.13
2023-01-13T15:50:25.595Z,10.13
2023-01-13T15:52:51.936Z,10.14
2023-01-13T15:55:18.295Z,10.12
2023-01-13T15:57:48.016Z,9.95
2023-01-13T16:00:20.194Z,10.15
2023-01-13T16:02:46.574Z,9.93
2023-01-13T16:05:12.921Z,10.06
2023-01-13T16:07:39.524Z,10.11
2023-01-13T16:10:08.340Z,10.07
2023-01-13T16:12:34.690Z,10.08
2023-01-13T16:15:01.056Z,10.02
2023-01-13T16:17:30.424Z,9.97
2023-01-13T16:19:56.797Z,10.02
2023-01-13T16:22:23.127Z,9.98
2023-01-13T16:24:49.611Z,10.05
2023-01-13T16:27:20.229Z,10.08
2023-01-13T16:29:47.584Z,10.08
2023-01-13T16:32:14.575Z,10.05
2023-01-13T16:34:40.981Z,10.09
2023-01-13T16:37:17.499Z,10.10
2023-01-13T16:39:43.976Z,10.09
2023-01-13T16:42:10.290Z,10.06
2023-01-13T16:44:36.644Z,10.13
2023-01-13T16:47:03.111Z,10.14
2023-01-13T16:49:29.448Z,10.09
2023-01-13T16:51:55.769Z,9.99
2023-01-13T16:54:22.106Z,9.95
2023-01-13T16:56:48.482Z,9.87
2023-01-13T16:59:14.802Z,9.83
2023-01-13T17:01:42.582Z,9.82
2023-01-13T17:04:16.669Z,9.78
2023-01-13T17:06:48.043Z,9.74
2023-01-13T17:09:16.655Z,9.74
2023-01-13T17:11:43.012Z,9.70
2023-01-13T17:14:18.210Z,9.73
2023-01-13T17:16:45.225Z,9.74
2023-01-13T17:19:11.976Z,9.70
2023-01-13T17:21:38.328Z,9.73
2023-01-13T17:24:06.237Z,9.71
2023-01-13T17:26:41.977Z,9.74
2023-01-13T17:29:11.597Z,9.71
2023-01-13T17:31:38.224Z,9.66
2023-01-13T17:34:05.039Z,9.66
2023-01-13T17:36:31.810Z,9.60
2023-01-13T17:38:58.202Z,9.61
2023-01-13T17:41:25.236Z,9.65
2023-01-13T17:43:51.898Z,9.66
2023-01-13T17:46:19.755Z,9.79
2023-01-13T17:48:46.617Z,9.89
2023-01-13T17:51:13.884Z,10.10
2023-01-13T17:53:44.091Z,10.14
2023-01-13T17:56:10.473Z,10.13
2023-01-13T17:58:37.633Z,10.04
2023-01-13T18:01:11.312Z,9.98
2023-01-13T18:03:38.254Z,9.96
2023-01-13T18:06:05.911Z,9.96
2023-01-13T18:08:32.235Z,10.00
2023-01-13T18:10:59.235Z,9.98
2023-01-13T18:13:26.130Z,9.96
2023-01-13T18:16:05.617Z,9.98
2023-01-13T18:18:32.018Z,9.96
2023-01-13T18:21:17.295Z,9.93
2023-01-13T18:24:02.486Z,9.97
2023-01-13T18:26:47.384Z,10.00
2023-01-13T18:29:13.722Z,10.03
2023-01-13T18:31:40.122Z,10.01
2023-01-13T18:34:06.483Z,10.01
2023-01-13T18:36:32.956Z,9.99
2023-01-13T18:38:59.381Z,9.96
2023-01-13T18:41:44.620Z,9.91
2023-01-13T18:44:10.920Z,9.94
2023-01-13T18:46:37.273Z,9.97
2023-01-13T18:49:03.728Z,9.97
2023-01-13T18:51:30.089Z,9.95
2023-01-13T18:53:56.709Z,9.96
2023-01-13T18:56:24.739Z,9.95
2023-01-13T18:58:52.088Z,9.92
2023-01-13T19:01:23.020Z,9.95
2023-01-13T19:03:56.643Z,9.94
2023-01-13T19:06:25.953Z,9.98
2023-01-13T19:08:55.057Z,9.99
2023-01-13T19:11:22.408Z,10.05
2023-01-13T19:13:49.424Z,10.01
2023-01-13T19:16:16.289Z,10.00
2023-01-13T19:18:42.751Z,10.04
2023-01-13T19:21:09.341Z,10.03
2023-01-13T19:23:36.099Z,9.99
2023-01-13T19:26:04.119Z,9.99
2023-01-13T19:28:34.021Z,10.02
2023-01-13T19:31:04.492Z,10.03
2023-01-13T19:33:32.666Z,10.03
2023-01-13T19:35:59.450Z,10.05
2023-01-13T19:38:26.099Z,10.03
2023-01-13T19:41:00.549Z,9.97
2023-01-13T19:43:45.888Z,10.02
2023-01-13T19:46:13.089Z,9.99
2023-01-13T19:48:39.564Z,10.00
2023-01-13T19:51:06.150Z,10.02
2023-01-13T19:53:32.578Z,9.98
2023-01-13T19:55:59.211Z,10.01
2023-01-13T19:58:26.111Z,9.98
2023-01-13T20:00:53.887Z,10.02
2023-01-13T20:03:24.214Z,9.95
2023-01-13T20:05:51.303Z,9.93
2023-01-13T20:08:21.937Z,9.87
2023-01-13T20:10:48.992Z,9.85
2023-01-13T20:13:16.179Z,9.82
2023-01-13T20:15:43.358Z,9.84
2023-01-13T20:18:09.794Z,9.86
2023-01-13T20:20:37.106Z,9.85
2023-01-13T20:23:03.524Z,9.87
2023-01-13T20:25:29.999Z,9.87
2023-01-13T20:27:56.421Z,9.88
2023-01-13T20:30:23.273Z,9.90
2023-01-13T20:32:49.599Z,9.85
2023-01-13T20:35:16.989Z,9.86
2023-01-13T20:37:43.787Z,9.87
2023-01-13T20:40:12.631Z,9.86
2023-01-13T20:42:44.515Z,9.85
2023-01-13T20:45:17.219Z,9.83
2023-01-13T20:47:44.512Z,9.82
2023-01-13T20:50:11.064Z,9.84
2023-01-13T20:52:37.705Z,9.84
2023-01-13T20:55:05.763Z,9.82
2023-01-13T20:57:32.137Z,9.79
2023-01-13T20:59:58.505Z,9.79
2023-01-13T21:02:25.540Z,9.76
2023-01-13T21:04:51.940Z,9.82
2023-01-13T21:07:18.338Z,9.83
2023-01-13T21:09:44.698Z,9.85
2023-01-13T21:12:33.301Z,9.84
2023-01-13T21:15:17.544Z,9.83
2023-01-13T21:18:03.345Z,9.84
2023-01-13T21:20:35.852Z,9.48
2023-01-13T21:23:02.848Z,9.90
2023-01-13T21:25:29.625Z,9.93
2023-01-13T21:27:59.322Z,9.87
2023-01-13T21:30:25.693Z,9.86
2023-01-13T21:32:52.094Z,9.90
2023-01-13T21:35:18.475Z,9.90
2023-01-13T21:37:44.873Z,9.88
2023-01-13T21:40:12.484Z,9.86
2023-01-13T21:42:57.692Z,9.87
2023-01-13T21:45:42.627Z,9.90
2023-01-13T21:48:09.120Z,9.90
2023-01-13T21:50:36.194Z,9.85
2023-01-13T21:53:02.611Z,9.86
2023-01-13T21:55:29.283Z,9.85
2023-01-13T21:57:57.172Z,9.87
2023-01-13T22:00:25.055Z,9.84
2023-01-13T22:02:51.499Z,9.88
2023-01-13T22:05:19.313Z,9.91
2023-01-13T22:07:45.786Z,9.89
2023-01-13T22:10:13.631Z,9.90
2023-01-13T22:12:40.478Z,9.91
2023-01-13T22:15:07.677Z,9.93
2023-01-13T22:17:34.145Z,9.90
2023-01-13T22:20:01.295Z,9.89
2023-01-13T22:22:28.998Z,9.88
2023-01-13T22:24:55.342Z,9.90
2023-01-13T22:27:23.553Z,9.88
2023-01-13T22:29:50.675Z,9.86
2023-01-13T22:32:17.413Z,9.87
2023-01-13T22:34:43.958Z,9.90
2023-01-13T22:37:10.333Z,9.85
2023-01-13T22:39:36.767Z,9.82
2023-01-13T22:42:03.576Z,9.81
2023-01-13T22:44:29.990Z,9.80
2023-01-13T22:46:56.318Z,9.73
2023-01-13T22:49:22.997Z,9.73
2023-01-13T22:51:49.308Z,9.70
2023-01-13T22:54:16.818Z,9.67
2023-01-13T22:56:43.383Z,9.68
2023-01-13T22:59:11.078Z,9.68
2023-01-13T23:01:37.551Z,9.68
2023-01-13T23:04:04.562Z,9.67
2023-01-13T23:06:32.191Z,9.66
2023-01-13T23:08:58.755Z,9.67
2023-01-13T23:11:26.816Z,9.63
2023-01-13T23:13:57.437Z,9.60
2023-01-13T23:16:24.168Z,9.58
2023-01-13T23:18:50.686Z,9.56
2023-01-13T23:21:27.741Z,9.55
2023-01-13T23:23:54.616Z,9.46
2023-01-13T23:26:21.486Z,9.45
2023-01-13T23:28:47.806Z,9.44
2023-01-13T23:31:15.842Z,9.39
2023-01-13T23:33:43.389Z,9.38
2023-01-13T23:36:14.138Z,9.41
2023-01-13T23:38:41.469Z,9.38
2023-01-13T23:41:08.898Z,9.36
2023-01-13T23:43:35.596Z,9.37
2023-01-13T23:46:06.503Z,9.37
2023-01-13T23:48:33.135Z,9.40
2023-01-13T23:51:00.420Z,9.41
2023-01-13T23:53:35.168Z,9.45
2023-01-13T23:56:02.778Z,9.48
2023-01-13T23:58:29.534Z,9.51
